Time;durP1;ratioP1;P1;durP2;ratioP2;P2;SDS_P1;SDS_P2;PMS_P1;PMS_P2;Temp;Humidity;BMP_temperature;BMP_pressure;BME280_temperature;BME280_humidity;BME280_pressure;Samples;Min_cycle;Max_cycle;Signal;HPM_P1;HPM_P2
2021/03/11 00:00:11;;;;;;;11.15;7.20;;;;;;;-2.82;96.13;99727.62;1745626;80;21026;-75
2021/03/11 00:02:44;;;;;;;10.70;6.78;;;;;;;-2.83;95.92;99722.86;1743397;82;20930;-75
2021/03/11 00:05:19;;;;;;;14.68;7.53;;;;;;;-2.85;95.75;99717.98;1770323;79;20942;-74
2021/03/11 00:07:56;;;;;;;13.40;6.60;;;;;;;-2.85;95.63;99723.14;1745707;80;21515;-75
2021/03/11 00:10:33;;;;;;;10.58;6.70;;;;;;;-2.87;95.53;99718.30;1742950;80;20907;-75
2021/03/11 00:13:05;;;;;;;11.48;6.50;;;;;;;-2.87;95.47;99722.16;1753202;79;21073;-75
2021/03/11 00:15:41;;;;;;;11.40;7.00;;;;;;;-2.88;95.48;99712.64;1742853;82;20919;-74
2021/03/11 00:18:16;;;;;;;13.70;6.70;;;;;;;-2.88;95.59;99716.52;1740702;81;21052;-75
2021/03/11 00:20:49;;;;;;;11.55;6.50;;;;;;;-2.89;95.65;99715.62;1729155;81;21378;-75
2021/03/11 00:23:23;;;;;;;9.78;7.05;;;;;;;-2.91;95.82;99713.36;1739586;81;21087;-74
2021/03/11 00:25:57;;;;;;;9.18;6.40;;;;;;;-2.92;95.92;99711.59;1726824;81;21458;-75
2021/03/11 00:28:36;;;;;;;9.25;6.22;;;;;;;-2.92;96.10;99713.28;1728372;81;21127;-75
2021/03/11 00:31:07;;;;;;;10.43;6.50;;;;;;;-2.94;96.30;99718.76;1753916;80;21080;-75
2021/03/11 00:33:45;;;;;;;10.18;6.83;;;;;;;-2.98;96.53;99720.68;1756194;80;21207;-74
2021/03/11 00:36:17;;;;;;;10.63;6.58;;;;;;;-3.00;96.75;99722.28;1753472;80;21065;-74
2021/03/11 00:38:50;;;;;;;10.23;6.97;;;;;;;-3.03;96.89;99723.00;1755691;80;20942;-75
2021/03/11 00:41:22;;;;;;;12.90;7.35;;;;;;;-3.05;96.94;99713.39;1749325;80;21029;-75
2021/03/11 00:46:34;;;;;;;13.55;8.68;;;;;;;-3.06;97.22;99710.33;1843403;77;22380;-74
2021/03/11 00:49:05;;;;;;;14.65;9.05;;;;;;;-3.11;97.35;99710.47;1808791;78;20982;-74
2021/03/11 00:51:40;;;;;;;18.25;9.45;;;;;;;-3.11;97.45;99711.36;1737296;81;20982;-74
2021/03/11 00:54:15;;;;;;;15.65;9.05;;;;;;;-3.12;97.57;99708.30;1751414;80;20955;-75
2021/03/11 00:56:50;;;;;;;11.93;7.20;;;;;;;-3.13;97.66;99709.50;1726318;82;21073;-74
2021/03/11 00:59:27;;;;;;;9.38;6.60;;;;;;;-3.20;97.81;99705.28;1698010;81;20962;-74
2021/03/11 01:01:59;;;;;;;10.53;7.10;;;;;;;-3.23;98.03;99713.25;1738047;82;20995;-74
2021/03/11 01:04:30;;;;;;;9.73;6.78;;;;;;;-3.26;98.24;99720.41;1748743;81;21217;-74
2021/03/11 01:07:08;;;;;;;15.65;8.78;;;;;;;-3.28;98.66;99722.02;1734138;81;21053;-74
2021/03/11 01:09:39;;;;;;;15.68;9.15;;;;;;;-3.29;99.02;99715.08;1751598;81;20960;-74
2021/03/11 01:12:14;;;;;;;16.10;9.80;;;;;;;-3.31;99.21;99699.91;1751687;81;20955;-74
2021/03/11 01:14:45;;;;;;;13.53;9.05;;;;;;;-3.33;99.31;99712.20;1767965;80;21045;-74
2021/03/11 01:17:21;;;;;;;14.28;8.45;;;;;;;-3.39;99.39;99705.41;1775027;80;21207;-74
2021/03/11 01:19:57;;;;;;;11.20;7.85;;;;;;;-3.44;99.54;99711.98;1775681;80;20939;-74
2021/03/11 01:22:28;;;;;;;11.90;7.97;;;;;;;-3.52;100.00;99713.73;1745021;82;21006;-74
2021/03/11 01:25:00;;;;;;;9.93;7.43;;;;;;;-3.52;100.00;99713.73;1748041;82;21428;-73
2021/03/11 01:27:35;;;;;;;10.55;7.00;;;;;;;-3.52;100.00;99716.70;1745057;81;21132;-73
2021/03/11 01:30:09;;;;;;;17.75;7.17;;;;;;;-3.51;100.00;99726.22;1748212;81;21410;-73
2021/03/11 01:32:39;;;;;;;10.13;7.30;;;;;;;-3.49;100.00;99716.88;1751441;80;20949;-73
2021/03/11 01:35:13;;;;;;;10.85;7.40;;;;;;;-3.47;100.00;99715.68;1768885;78;20962;-74
2021/03/11 01:37:45;;;;;;;12.58;6.60;;;;;;;-3.45;100.00;99718.84;1751433;82;20943;-73
2021/03/11 01:40:17;;;;;;;11.08;7.17;;;;;;;-3.42;100.00;99724.58;1756576;78;20919;-75
2021/03/11 01:42:48;;;;;;;8.57;6.07;;;;;;;-3.41;100.00;99716.03;1754628;81;21227;-75
2021/03/11 01:45:23;;;;;;;10.63;6.62;;;;;;;-3.40;100.00;99721.68;1741656;81;21824;-75
2021/03/11 01:48:01;;;;;;;9.03;6.12;;;;;;;-3.39;100.00;99718.30;1727842;82;21014;-75
2021/03/11 01:50:34;;;;;;;11.00;6.78;;;;;;;-3.40;100.00;99717.81;1750590;81;20938;-76
2021/03/11 01:53:05;;;;;;;10.10;6.70;;;;;;;-3.41;100.00;99720.80;1735167;81;20926;-76
2021/03/11 01:55:39;;;;;;;10.28;7.20;;;;;;;-3.40;100.00;99722.57;1740288;81;21210;-78
2021/03/11 01:58:15;;;;;;;11.95;7.17;;;;;;;-3.40;100.00;99721.28;1717795;81;21100;-74
2021/03/11 02:00:54;;;;;;;11.22;6.67;;;;;;;-3.37;100.00;99724.44;1736703;81;20967;-75
2021/03/11 02:03:32;;;;;;;10.05;7.03;;;;;;;-3.34;100.00;99727.19;1718864;81;20994;-75
2021/03/11 02:06:03;;;;;;;;;;;;;;;-3.33;100.00;99735.42;1732116;81;20923;-74
2021/03/11 02:08:38;;;;;;;13.35;8.58;;;;;;;-3.33;100.00;99732.84;1770838;80;22396;-75
2021/03/11 02:11:13;;;;;;;10.20;7.08;;;;;;;-3.31;100.00;99738.98;1757103;79;20964;-76
2021/03/11 02:13:49;;;;;;;13.15;8.15;;;;;;;-3.30;100.00;99742.97;1749761;80;20943;-75
2021/03/11 02:16:42;;;;;;;10.60;7.30;;;;;;;-3.28;100.00;99738.78;1802530;79;20888;-75
2021/03/11 02:19:48;;;;;;;12.98;8.18;;;;;;;-3.27;100.00;99737.09;1736327;81;21072;-75
2021/03/11 02:22:49;;;;;;;11.55;7.92;;;;;;;-3.27;100.00;99740.97;1732884;81;21393;-75
2021/03/11 02:25:38;;;;;;;11.95;8.30;;;;;;;-3.28;100.00;99743.05;1738224;81;20947;-75
2021/03/11 02:28:28;;;;;;;14.50;8.48;;;;;;;-3.31;100.00;99747.64;1730560;81;21117;-76
2021/03/11 02:30:59;;;;;;;15.55;8.50;;;;;;;-3.33;100.00;99742.76;1801421;79;21002;-75
2021/03/11 02:33:32;;;;;;;9.58;6.95;;;;;;;-3.35;100.00;99744.77;1738674;82;21609;-74
2021/03/11 02:36:18;;;;;;;14.60;8.98;;;;;;;-3.32;100.00;99749.70;1814584;78;28756;-75
2021/03/11 02:38:56;;;;;;;13.68;8.40;;;;;;;-3.37;100.00;99756.28;1725974;81;21567;-76
2021/03/11 02:41:27;;;;;;;12.73;8.33;;;;;;;-3.40;100.00;99754.81;1743509;80;22184;-76
2021/03/11 02:44:17;;;;;;;13.98;8.68;;;;;;;-3.41;100.00;99759.48;1771672;79;20958;-73
2021/03/11 02:46:50;;;;;;;11.57;8.18;;;;;;;-3.41;100.00;99754.33;1740606;81;20930;-72
2021/03/11 02:49:21;;;;;;;;;;;;;;;-3.40;100.00;99754.81;1743523;82;21033;-73
2021/03/11 02:51:52;;;;;;;13.50;8.63;;;;;;;-3.39;100.00;99755.30;1745113;82;20153;-73
2021/03/11 02:54:25;;;;;;;11.75;8.40;;;;;;;-3.38;100.00;99753.61;1717338;80;21376;-73
2021/03/11 02:56:58;;;;;;;13.10;7.60;;;;;;;-3.40;100.00;99756.10;1743744;80;21030;-72
2021/03/11 02:59:30;;;;;;;13.40;8.30;;;;;;;-3.40;100.00;99753.92;1744944;80;20946;-73
2021/03/11 03:02:02;;;;;;;12.40;8.00;;;;;;;-3.39;100.00;99758.28;1725819;81;20903;-74
2021/03/11 03:04:33;;;;;;;12.25;8.20;;;;;;;-3.38;100.00;99755.80;1710802;82;20930;-74
2021/03/11 03:07:04;;;;;;;11.33;7.83;;;;;;;-3.39;100.00;99756.59;1726370;81;21201;-74
2021/03/11 03:09:38;;;;;;;13.25;8.43;;;;;;;-3.37;100.00;99761.44;1715852;82;20950;-73
2021/03/11 03:12:16;;;;;;;14.00;8.13;;;;;;;-3.39;100.00;99758.28;1738821;82;20931;-74
2021/03/11 03:14:51;;;;;;;12.00;8.15;;;;;;;-3.41;100.00;99764.64;1767806;79;21672;-74
2021/03/11 03:17:21;;;;;;;11.88;8.65;;;;;;;-3.43;100.00;99764.95;1716039;82;20934;-75
2021/03/11 03:19:57;;;;;;;11.83;8.63;;;;;;;-3.42;100.00;99765.44;1701523;83;21595;-75
2021/03/11 03:22:28;;;;;;;15.05;8.75;;;;;;;-3.41;100.00;99761.17;1717892;82;21662;-76
2021/03/11 03:25:00;;;;;;;12.98;8.88;;;;;;;-3.41;100.00;99762.06;1700134;83;21468;-75
2021/03/11 03:27:31;;;;;;;15.58;9.45;;;;;;;-3.41;100.00;99762.06;1718076;82;21409;-75
2021/03/11 03:30:16;;;;;;;13.75;9.05;;;;;;;-3.41;100.00;99765.93;1674629;81;21452;-75
2021/03/11 03:32:47;;;;;;;17.27;10.00;;;;;;;-3.43;100.00;99759.80;1729433;80;21396;-75
2021/03/11 03:35:20;;;;;;;12.50;8.35;;;;;;;-3.41;100.00;99762.46;1711186;82;21589;-75
2021/03/11 03:37:55;;;;;;;13.03;9.25;;;;;;;-3.42;99.93;99764.55;1722318;82;20972;-75
2021/03/11 03:40:26;;;;;;;11.80;8.15;;;;;;;-3.43;99.87;99764.95;1758499;80;20902;-75
2021/03/11 03:43:22;;;;;;;13.32;8.20;;;;;;;-3.47;99.67;99773.31;1760675;80;21932;-75
2021/03/11 03:46:09;;;;;;;15.05;8.55;;;;;;;-3.52;99.41;99772.16;1758399;80;21425;-75
2021/03/11 03:48:50;;;;;;;12.88;9.00;;;;;;;-3.57;99.23;99774.86;1758040;80;21508;-74
2021/03/11 03:51:25;;;;;;;13.62;8.80;;;;;;;-3.58;99.02;99766.23;1758109;80;21005;-75
2021/03/11 03:54:03;;;;;;;17.05;9.55;;;;;;;-3.59;98.82;99769.61;1759916;80;20926;-76
2021/03/11 03:56:38;;;;;;;13.00;8.95;;;;;;;-3.62;98.71;99761.70;1757725;80;21536;-75
2021/03/11 03:59:20;;;;;;;14.43;9.18;;;;;;;-3.65;98.71;99774.41;1758279;80;21188;-75
2021/03/11 04:01:54;;;;;;;14.93;8.60;;;;;;;-3.67;98.64;99770.84;1758414;80;21143;-77
2021/03/11 04:04:29;;;;;;;13.98;8.93;;;;;;;-3.71;98.50;99766.70;1759999;80;20942;-76
2021/03/11 04:07:00;;;;;;;15.83;9.20;;;;;;;-3.73;98.23;99770.48;1757886;80;21064;-70
2021/03/11 04:09:32;;;;;;;12.53;7.80;;;;;;;-3.74;97.98;99776.84;1759979;80;21030;-70
2021/03/11 04:12:05;;;;;;;12.55;8.53;;;;;;;-3.78;97.76;99774.47;1757407;80;22263;-76
2021/03/11 04:14:38;;;;;;;18.92;8.23;;;;;;;-3.80;97.72;99780.80;1759819;80;21005;-75
2021/03/11 04:17:08;;;;;;;14.50;8.53;;;;;;;-3.79;97.76;99777.81;1758208;80;21010;-73
2021/03/11 04:19:41;;;;;;;14.28;8.13;;;;;;;-3.77;97.96;99783.98;1763318;78;21077;-74
2021/03/11 04:22:11;;;;;;;18.35;8.03;;;;;;;-3.76;97.81;99779.72;1769739;80;20917;-77
2021/03/11 04:24:41;;;;;;;13.22;8.13;;;;;;;-3.77;97.50;99772.78;1761668;79;21496;-76
2021/03/11 04:27:11;;;;;;;14.30;8.00;;;;;;;-3.76;97.17;99774.56;1739105;80;21491;-75
2021/03/11 04:29:42;;;;;;;12.80;8.08;;;;;;;-3.74;97.11;99776.84;1758395;80;21093;-76
2021/03/11 04:32:12;;;;;;;12.90;8.20;;;;;;;-3.74;97.00;99770.39;1757700;80;20927;-62
2021/03/11 04:34:42;;;;;;;11.97;7.85;;;;;;;-3.74;96.84;99771.68;1760730;78;21203;-79
2021/03/11 04:37:12;;;;;;;13.55;8.23;;;;;;;-3.76;96.81;99774.16;1781049;79;21366;-78
2021/03/11 04:39:42;;;;;;;13.38;8.68;;;;;;;-3.77;96.71;99766.34;1782603;77;20895;-78
2021/03/11 04:42:13;;;;;;;13.05;8.53;;;;;;;-3.77;96.85;99774.08;1781690;79;20931;-77
2021/03/11 04:44:44;;;;;;;13.22;8.30;;;;;;;-3.78;96.83;99773.19;1782854;79;21037;-77
2021/03/11 04:47:15;;;;;;;12.30;8.40;;;;;;;-3.83;96.75;99774.16;1783449;79;20977;-77
2021/03/11 04:49:46;;;;;;;10.78;8.10;;;;;;;-3.86;96.80;99775.67;1787981;79;21366;-77
2021/03/11 04:52:16;;;;;;;12.80;7.90;;;;;;;-3.90;96.99;99769.44;1744144;80;20973;-77
2021/03/11 04:54:48;;;;;;;12.23;8.40;;;;;;;-3.90;97.16;99772.02;1725615;81;20931;-75
2021/03/11 04:57:18;;;;;;;13.00;8.55;;;;;;;-3.87;97.25;99776.06;1743890;80;20915;-76
2021/03/11 04:59:48;;;;;;;12.05;8.55;;;;;;;-3.84;97.47;99775.36;1726160;81;20966;-75
2021/03/11 05:02:18;;;;;;;12.73;8.33;;;;;;;-3.84;97.59;99774.96;1726267;81;21365;-69
2021/03/11 05:04:48;;;;;;;12.65;8.05;;;;;;;-3.83;97.66;99781.00;1743921;81;20930;-78
2021/03/11 05:07:19;;;;;;;20.72;8.88;;;;;;;-3.83;97.68;99783.19;1725682;81;20930;-76
2021/03/11 05:09:48;;;;;;;13.65;8.65;;;;;;;-3.81;97.81;99789.32;1742038;80;20988;-74
2021/03/11 05:12:18;;;;;;;13.65;8.38;;;;;;;-3.77;97.87;99789.54;1727215;81;20978;-75
2021/03/11 05:14:50;;;;;;;16.03;9.13;;;;;;;-3.74;97.89;99789.73;1738981;81;22185;-74
2021/03/11 05:17:20;;;;;;;11.35;7.92;;;;;;;-3.71;97.94;99792.09;1733829;81;20946;-68
2021/03/11 05:19:50;;;;;;;13.18;7.83;;;;;;;-3.69;97.96;99793.47;1744322;80;21041;-76
2021/03/11 05:22:21;;;;;;;15.85;8.15;;;;;;;-3.68;98.22;99792.67;1727567;81;20950;-76
2021/03/11 05:24:53;;;;;;;12.93;8.93;;;;;;;-3.67;98.39;99791.47;1725627;81;21061;-75
2021/03/11 05:27:23;;;;;;;13.13;8.63;;;;;;;-3.65;98.70;99793.74;1744383;80;21375;-74
2021/03/11 05:29:54;;;;;;;9.70;7.62;;;;;;;-3.61;98.84;99798.69;1724619;81;21220;-77
2021/03/11 05:32:24;;;;;;;16.10;8.18;;;;;;;-3.58;99.01;99804.02;1742122;81;20973;-74
2021/03/11 05:34:54;;;;;;;12.98;8.70;;;;;;;-3.56;99.18;99795.58;1725372;81;21052;-75
2021/03/11 05:37:24;;;;;;;11.78;7.78;;;;;;;-3.52;99.29;99798.83;1740551;81;21058;-73
2021/03/11 05:39:53;;;;;;;11.03;7.58;;;;;;;-3.50;99.36;99794.66;1738470;80;21217;-71
2021/03/11 05:42:24;;;;;;;12.63;7.87;;;;;;;-3.48;99.51;99801.19;1740235;82;21057;-76
2021/03/11 05:44:53;;;;;;;11.97;7.92;;;;;;;-3.46;99.52;99802.57;1726955;81;21041;-75
2021/03/11 05:47:25;;;;;;;12.30;8.13;;;;;;;-3.43;99.73;99806.22;1735843;82;21021;-73
2021/03/11 05:49:56;;;;;;;10.85;7.60;;;;;;;-3.43;99.52;99806.22;1756427;79;21110;-76
2021/03/11 05:52:26;;;;;;;13.38;8.00;;;;;;;-3.49;99.32;99804.17;1752620;79;21195;-70
2021/03/11 05:54:59;;;;;;;11.53;8.00;;;;;;;-3.50;99.36;99797.63;1727670;81;21562;-77
2021/03/11 05:57:33;;;;;;;13.65;8.63;;;;;;;-3.55;99.35;99805.09;1736409;80;21150;-79
2021/03/11 06:00:05;;;;;;;12.13;7.78;;;;;;;-3.63;99.34;99805.03;1739008;80;21053;-75
2021/03/11 06:02:34;;;;;;;13.78;8.58;;;;;;;-3.67;99.24;99807.34;1756469;79;21151;-75
2021/03/11 06:05:05;;;;;;;14.25;8.48;;;;;;;-3.73;99.51;99807.86;1739271;80;21935;-76
2021/03/11 06:07:36;;;;;;;16.42;8.33;;;;;;;-3.75;99.62;99812.44;1735762;80;21027;-76
2021/03/11 06:10:09;;;;;;;12.25;8.23;;;;;;;-3.76;100.00;99812.84;1739728;82;21544;-76
2021/03/11 06:12:38;;;;;;;12.75;8.45;;;;;;;-3.78;100.00;99815.72;1712916;82;21511;-61
2021/03/11 06:15:36;;;;;;;13.10;8.35;;;;;;;-3.77;100.00;99819.19;1753762;81;20966;-62
2021/03/11 06:18:09;;;;;;;13.38;7.97;;;;;;;-3.77;100.00;99820.47;1738132;82;21206;-63
2021/03/11 06:20:39;;;;;;;13.68;8.18;;;;;;;-3.76;100.00;99817.09;1735981;82;20911;-63
2021/03/11 06:23:09;;;;;;;14.03;8.55;;;;;;;-3.73;100.00;99814.70;1738025;81;21463;-63
2021/03/11 06:25:38;;;;;;;12.63;8.08;;;;;;;-3.67;100.00;99816.36;1736327;82;21045;-64
2021/03/11 06:28:09;;;;;;;17.57;8.93;;;;;;;-3.59;100.00;99816.02;1754248;81;21175;-63
2021/03/11 06:30:40;;;;;;;12.43;8.33;;;;;;;-3.53;100.00;99828.39;1734191;82;21218;-62
2021/03/11 06:33:10;;;;;;;14.78;8.80;;;;;;;-3.49;100.00;99825.20;1735459;80;21201;-63
2021/03/11 06:35:42;;;;;;;13.28;8.55;;;;;;;-3.40;100.00;99826.14;1752416;79;21152;-63
2021/03/11 06:38:28;;;;;;;12.23;8.25;;;;;;;-3.34;100.00;99831.27;1786216;79;21599;-63
2021/03/11 06:40:58;;;;;;;13.03;8.10;;;;;;;-3.25;100.00;99832.24;1790505;79;21049;-68
2021/03/11 06:43:28;;;;;;;14.45;8.68;;;;;;;-3.12;100.00;99835.14;1785855;79;21532;-68
2021/03/11 06:46:10;;;;;;;14.98;8.95;;;;;;;-3.04;100.00;99838.66;1788192;78;20993;-69
2021/03/11 06:48:41;;;;;;;17.73;8.43;;;;;;;-2.96;100.00;99840.39;1789357;79;21026;-69
2021/03/11 06:51:20;;;;;;;15.83;8.80;;;;;;;-2.91;100.00;99843.72;1786631;79;21200;-71
2021/03/11 06:53:59;;;;;;;13.18;8.80;;;;;;;-2.81;100.00;99848.16;1786548;78;21148;-69
2021/03/11 06:56:28;;;;;;;13.53;8.55;;;;;;;-2.71;100.00;99849.17;1787811;78;21370;-67
2021/03/11 06:59:00;;;;;;;15.48;8.70;;;;;;;-2.60;100.00;99857.13;1788015;79;21113;-68
2021/03/11 07:01:34;;;;;;;12.57;8.40;;;;;;;-2.53;99.93;99848.92;1786863;79;21049;-73
2021/03/11 07:04:04;;;;;;;16.02;8.93;;;;;;;-2.44;99.53;99851.13;1790021;79;21780;-73
2021/03/11 07:06:38;;;;;;;14.13;8.43;;;;;;;-2.35;98.36;99849.09;1788623;79;21105;-72
2021/03/11 07:09:08;;;;;;;15.58;8.45;;;;;;;-2.24;98.22;99849.28;1787446;79;21219;-74
2021/03/11 07:11:54;;;;;;;12.58;8.30;;;;;;;-2.12;97.17;99855.13;1790492;78;21084;-77
2021/03/11 07:14:29;;;;;;;11.38;7.67;;;;;;;-2.09;95.65;99852.71;1789982;79;21630;-76
2021/03/11 07:17:24;;;;;;;11.60;7.03;;;;;;;-2.02;94.73;99849.65;1787032;78;21061;-75
2021/03/11 07:20:14;;;;;;;11.97;7.40;;;;;;;-1.93;94.22;99842.80;1693388;84;21140;-75
2021/03/11 07:23:11;;;;;;;11.13;6.83;;;;;;;-1.84;93.07;99839.84;1698064;84;21337;-72
2021/03/11 07:25:45;;;;;;;9.85;6.42;;;;;;;-1.82;90.25;99841.70;1769068;78;21192;-76
2021/03/11 07:28:26;;;;;;;11.33;6.50;;;;;;;-1.80;89.45;99838.80;1789322;78;21026;-77
2021/03/11 07:31:00;;;;;;;12.15;6.60;;;;;;;-1.72;89.25;99838.80;1786818;79;20986;-79
2021/03/11 07:33:34;;;;;;;10.08;5.83;;;;;;;-1.63;88.17;99838.40;1789366;78;21002;-74
2021/03/11 07:36:07;;;;;;;7.70;5.70;;;;;;;-1.52;88.12;99844.14;1786753;78;22003;-75
2021/03/11 07:38:38;;;;;;;9.23;5.83;;;;;;;-1.47;87.03;99837.09;1787803;78;21113;-74
2021/03/11 07:41:09;;;;;;;6.77;4.87;;;;;;;-1.45;85.86;99840.66;1789462;79;21115;-75
2021/03/11 07:43:38;;;;;;;12.85;5.85;;;;;;;-1.42;84.87;99842.52;1787059;78;21030;-77
2021/03/11 07:46:08;;;;;;;9.63;5.65;;;;;;;-1.34;84.79;99851.19;1790644;78;21096;-74
2021/03/11 07:48:38;;;;;;;10.48;5.12;;;;;;;-1.27;83.80;99854.98;1787568;79;21436;-72
2021/03/11 07:51:08;;;;;;;9.98;5.62;;;;;;;-1.28;82.26;99846.33;1762493;79;21528;-71
2021/03/11 07:53:40;;;;;;;8.68;5.25;;;;;;;-1.23;80.93;99843.09;1796915;78;21195;-72
2021/03/11 07:56:10;;;;;;;9.95;5.28;;;;;;;-1.21;79.58;99844.05;1785978;78;21109;-71
2021/03/11 07:58:42;;;;;;;7.35;4.00;;;;;;;-1.20;78.88;99833.78;1788334;79;21129;-72
2021/03/11 08:01:11;;;;;;;11.75;5.65;;;;;;;-1.15;78.34;99835.30;1786677;79;21443;-71
2021/03/11 08:03:46;;;;;;;8.15;5.35;;;;;;;-1.08;77.13;99827.04;1799722;78;21085;-73
2021/03/11 08:06:25;;;;;;;10.82;5.35;;;;;;;-1.02;76.96;99828.23;1801805;78;21106;-74
2021/03/11 08:08:55;;;;;;;10.18;5.78;;;;;;;-0.97;76.58;99829.76;1804602;78;21489;-73
2021/03/11 08:11:41;;;;;;;9.70;6.22;;;;;;;-0.96;76.44;99835.42;1804239;78;21049;-70
2021/03/11 08:14:26;;;;;;;11.15;5.15;;;;;;;-0.93;76.28;99831.72;1804321;78;21376;-70
2021/03/11 08:16:55;;;;;;;10.75;6.03;;;;;;;-0.88;75.62;99827.66;1721382;81;21508;-72
2021/03/11 08:19:39;;;;;;;8.18;5.75;;;;;;;-0.83;75.26;99831.37;1745429;81;21072;-72
2021/03/11 08:22:09;;;;;;;8.93;5.75;;;;;;;-0.81;73.81;99832.73;1772975;79;20914;-73
2021/03/11 08:24:47;;;;;;;10.93;5.92;;;;;;;-0.81;73.53;99821.97;1733578;81;20939;-71
2021/03/11 08:27:32;;;;;;;8.95;5.40;;;;;;;-0.73;72.87;99829.71;1772877;79;21369;-72
2021/03/11 08:30:04;;;;;;;11.48;6.08;;;;;;;-0.68;71.71;99836.41;1780818;79;21026;-76
2021/03/11 08:32:50;;;;;;;10.05;5.92;;;;;;;-0.65;74.08;99833.56;1788310;79;21120;-75
2021/03/11 08:35:42;;;;;;;10.55;5.37;;;;;;;-0.59;73.56;99834.67;1794452;79;21623;-69
2021/03/11 08:38:32;;;;;;;9.58;5.15;;;;;;;-0.51;72.34;99833.34;1770813;80;20931;-66
2021/03/11 08:41:10;;;;;;;12.58;6.00;;;;;;;-0.49;71.63;99832.60;1700139;83;21393;-73
2021/03/11 08:43:45;;;;;;;8.85;5.95;;;;;;;-0.52;71.44;99835.05;1720235;80;21182;-73
2021/03/11 08:46:23;;;;;;;10.70;6.47;;;;;;;-0.53;71.50;99833.27;1742166;81;21612;-74
2021/03/11 08:48:58;;;;;;;10.75;6.47;;;;;;;-0.47;73.03;99833.59;1752289;79;21143;-74
2021/03/11 08:51:34;;;;;;;10.03;6.22;;;;;;;-0.43;71.91;99838.52;1772552;79;20922;-74
2021/03/11 08:54:10;;;;;;;10.48;6.33;;;;;;;-0.40;72.25;99832.19;1772679;79;21388;-75
2021/03/11 08:56:41;;;;;;;12.78;6.67;;;;;;;-0.33;71.37;99838.14;1771113;79;21079;-74
2021/03/11 08:59:17;;;;;;;10.05;5.70;;;;;;;-0.28;71.16;99837.95;1772400;79;21076;-74
2021/03/11 09:01:54;;;;;;;10.88;7.22;;;;;;;-0.22;71.53;99846.43;1752333;79;21012;-74
2021/03/11 09:04:37;;;;;;;10.05;6.10;;;;;;;-0.12;72.53;99848.23;1694281;83;21159;-74
2021/03/11 09:07:12;;;;;;;10.10;5.72;;;;;;;-0.03;71.68;99844.77;1742063;81;21209;-74
2021/03/11 09:09:50;;;;;;;9.83;6.08;;;;;;;0.12;72.08;99843.73;1665509;83;21183;-74
2021/03/11 09:12:37;;;;;;;11.05;6.30;;;;;;;0.29;71.92;99842.80;1744578;80;21049;-74
2021/03/11 09:15:09;;;;;;;9.20;6.33;;;;;;;0.38;69.20;99847.52;1744578;80;21133;-74
2021/03/11 09:17:39;;;;;;;11.00;5.65;;;;;;;0.34;67.89;99849.49;1744870;80;21049;-73
2021/03/11 09:20:17;;;;;;;14.63;6.33;;;;;;;0.35;67.33;99849.97;1744436;81;21332;-73
2021/03/11 09:22:50;;;;;;;9.35;6.05;;;;;;;0.45;67.20;99850.86;1744306;80;21156;-73
2021/03/11 09:25:23;;;;;;;10.30;6.62;;;;;;;0.52;66.75;99847.75;1744402;80;21479;-73
2021/03/11 09:28:06;;;;;;;13.88;6.70;;;;;;;0.49;67.22;99852.41;1744599;80;21147;-74
2021/03/11 09:30:39;;;;;;;8.58;5.85;;;;;;;0.48;66.68;99844.14;1744234;80;20989;-74
2021/03/11 09:33:17;;;;;;;13.15;6.12;;;;;;;0.55;65.68;99841.00;1744518;80;22099;-75
2021/03/11 09:35:49;;;;;;;11.40;6.05;;;;;;;0.65;65.53;99840.09;1744160;80;21024;-74
2021/03/11 09:38:25;;;;;;;10.30;6.45;;;;;;;0.72;65.89;99840.84;1785876;78;21135;-75
2021/03/11 09:41:01;;;;;;;9.45;6.37;;;;;;;0.80;66.19;99836.88;1796450;79;21176;-74
2021/03/11 09:43:41;;;;;;;9.58;5.42;;;;;;;0.81;67.15;99843.84;1728598;83;20967;-75
2021/03/11 09:46:20;;;;;;;10.32;7.25;;;;;;;0.83;66.57;99843.09;1728645;82;21372;-76
2021/03/11 09:48:53;;;;;;;9.38;6.50;;;;;;;0.82;65.59;99843.91;1727838;82;20959;-75
2021/03/11 09:51:29;;;;;;;8.93;6.15;;;;;;;0.87;64.75;99842.39;1738620;82;21070;-74
2021/03/11 09:54:04;;;;;;;10.88;5.97;;;;;;;1.01;64.14;99836.52;1736283;82;21586;-75
2021/03/11 09:56:44;;;;;;;9.05;5.80;;;;;;;1.08;65.15;99839.86;1734225;82;21093;-75
2021/03/11 09:59:15;;;;;;;8.83;5.72;;;;;;;1.11;65.27;99840.40;1799244;79;21206;-74
2021/03/11 10:01:49;;;;;;;7.90;6.00;;;;;;;1.12;64.39;99846.95;1796114;79;21170;-74
2021/03/11 10:04:27;;;;;;;8.38;5.67;;;;;;;1.14;64.63;99838.81;1796353;79;21483;-71
2021/03/11 10:07:01;;;;;;;10.28;6.35;;;;;;;1.25;65.99;99837.55;1779926;79;21600;-74
2021/03/11 10:09:42;;;;;;;8.90;5.97;;;;;;;1.33;67.02;99835.27;1781319;78;20927;-75
2021/03/11 10:12:13;;;;;;;10.15;6.22;;;;;;;1.40;66.23;99837.30;1766615;81;21541;-76
2021/03/11 10:14:44;;;;;;;9.08;6.17;;;;;;;1.47;65.50;99828.95;1766691;81;20946;-75
2021/03/11 10:17:20;;;;;;;7.53;5.50;;;;;;;1.47;64.97;99832.85;1766719;81;21590;-75
2021/03/11 10:19:51;;;;;;;9.28;5.95;;;;;;;1.49;63.82;99820.80;1775036;79;21449;-75
2021/03/11 10:22:23;;;;;;;9.78;6.25;;;;;;;1.66;63.97;99824.08;1788628;79;20935;-75
2021/03/11 10:24:53;;;;;;;9.38;6.28;;;;;;;1.76;63.39;99820.13;1732631;81;21390;-75
2021/03/11 10:27:30;;;;;;;9.33;6.72;;;;;;;1.93;63.93;99810.41;1791934;78;21030;-75
2021/03/11 10:30:29;;;;;;;9.53;6.62;;;;;;;2.09;62.76;99816.25;1793917;79;21031;-75
2021/03/11 10:33:00;;;;;;;9.65;6.37;;;;;;;2.26;61.41;99818.19;1711426;81;21171;-76
2021/03/11 10:35:36;;;;;;;13.48;7.17;;;;;;;2.39;61.13;99808.73;1732495;81;21018;-76
2021/03/11 10:38:24;;;;;;;10.00;7.33;;;;;;;2.38;61.57;99804.77;1712991;82;21204;-74
2021/03/11 10:41:15;;;;;;;9.40;6.78;;;;;;;2.43;62.27;99807.12;1721789;82;21017;-76
2021/03/11 10:43:49;;;;;;;10.15;6.67;;;;;;;2.51;61.83;99800.47;1732904;82;21211;-74
2021/03/11 10:46:29;;;;;;;9.28;5.87;;;;;;;2.53;60.81;99785.79;1740775;82;20919;-76
2021/03/11 10:49:03;;;;;;;11.10;6.67;;;;;;;2.64;62.10;99793.98;1725964;82;21585;-74
2021/03/11 10:51:33;;;;;;;8.93;6.65;;;;;;;2.63;61.63;99794.81;1742449;80;21252;-74
2021/03/11 10:54:03;;;;;;;12.13;6.92;;;;;;;2.40;60.75;99791.39;1729113;81;21129;-75
2021/03/11 10:56:32;;;;;;;11.22;6.17;;;;;;;2.34;61.42;99789.41;1783555;79;21120;-74
2021/03/11 10:59:06;;;;;;;10.80;6.80;;;;;;;2.36;61.56;99777.34;1794240;79;21069;-75
2021/03/11 11:01:36;;;;;;;9.53;6.80;;;;;;;2.58;61.96;99778.14;1802369;79;21068;-75
2021/03/11 11:04:07;;;;;;;13.53;7.17;;;;;;;2.77;61.40;99776.23;1717359;81;22328;-75
2021/03/11 11:06:38;;;;;;;10.85;7.33;;;;;;;2.88;60.90;99770.53;1722313;81;20963;-75
2021/03/11 11:09:08;;;;;;;10.37;6.63;;;;;;;2.84;61.28;99778.66;1792310;78;21054;-75
2021/03/11 11:11:38;;;;;;;12.85;7.28;;;;;;;2.74;60.62;99770.91;1792511;79;20897;-77
2021/03/11 11:14:07;;;;;;;13.45;7.37;;;;;;;2.64;60.25;99770.13;1774398;79;21475;-76
2021/03/11 11:16:38;;;;;;;9.50;7.20;;;;;;;2.63;59.55;99763.56;1792981;78;21370;-76
2021/03/11 11:19:08;;;;;;;10.28;6.90;;;;;;;2.81;59.27;99761.17;1805102;79;21060;-75
2021/03/11 11:21:37;;;;;;;9.88;6.92;;;;;;;2.80;59.92;99756.80;1805149;78;21057;-76
2021/03/11 11:24:07;;;;;;;11.65;7.40;;;;;;;2.75;58.94;99757.47;1805173;79;21042;-76
2021/03/11 11:26:38;;;;;;;9.53;6.80;;;;;;;2.93;59.45;99759.85;1805313;79;21484;-75
2021/03/11 11:29:07;;;;;;;11.88;7.40;;;;;;;3.06;59.75;99761.61;1803894;78;22644;-75
2021/03/11 11:31:38;;;;;;;10.95;7.00;;;;;;;2.96;58.78;99752.14;1732614;82;21525;-76
2021/03/11 11:34:19;;;;;;;9.58;7.62;;;;;;;2.97;58.67;99742.18;1803335;79;20959;-76
2021/03/11 11:36:49;;;;;;;10.82;7.35;;;;;;;3.01;58.39;99741.03;1732132;82;21081;-75
2021/03/11 11:39:18;;;;;;;12.10;7.70;;;;;;;3.00;58.37;99738.38;1738551;82;21102;-75
2021/03/11 11:41:50;;;;;;;12.33;7.42;;;;;;;3.09;58.33;99735.65;1726592;82;21154;-76
2021/03/11 11:44:19;;;;;;;11.28;7.37;;;;;;;3.06;58.03;99732.06;1738349;82;21082;-75
2021/03/11 11:46:48;;;;;;;10.53;7.60;;;;;;;3.08;58.74;99730.38;1738381;82;21019;-76
2021/03/11 11:49:17;;;;;;;10.90;7.42;;;;;;;3.14;59.09;99726.67;1738682;82;21122;-75
2021/03/11 11:51:47;;;;;;;10.03;7.30;;;;;;;3.15;58.42;99713.69;1738587;82;21565;-75
2021/03/11 11:54:17;;;;;;;9.80;7.25;;;;;;;3.19;58.16;99710.77;1726942;81;21645;-76
2021/03/11 11:56:47;;;;;;;11.35;8.13;;;;;;;3.27;57.58;99713.61;1760331;80;20986;-76
2021/03/11 11:59:19;;;;;;;11.45;8.25;;;;;;;3.36;57.34;99710.02;1739373;82;21081;-75
2021/03/11 12:01:48;;;;;;;10.50;8.00;;;;;;;3.41;56.34;99706.72;1798659;78;21489;-74